sensor_id;sensor_type;location;lat;lon;timestamp;pressure;altitude;pressure_sealevel;temperature;humidity
18755;BME280;35061;47.664;9.166;2022-11-11T00:01:43;103050.66;;;8.36;100.00
18755;BME280;35061;47.664;9.166;2022-11-11T00:04:11;103060.87;;;8.37;100.00
18755;BME280;35061;47.664;9.166;2022-11-11T00:06:39;103051.16;;;8.31;100.00
18755;BME280;35061;47.664;9.166;2022-11-11T00:09:08;103057.70;;;8.28;100.00
18755;BME280;35061;47.664;9.166;2022-11-11T00:11:36;103055.31;;;8.22;100.00
18755;BME280;35061;47.664;9.166;2022-11-11T00:14:04;103052.14;;;8.13;100.00
18755;BME280;35061;47.664;9.166;2022-11-11T00:16:31;103046.48;;;8.06;100.00
18755;BME280;35061;47.664;9.166;2022-11-11T00:19:19;103039.62;;;8.00;100.00
18755;BME280;35061;47.664;9.166;2022-11-11T00:22:18;103036.80;;;7.96;100.00
18755;BME280;35061;47.664;9.166;2022-11-11T00:25:06;103040.04;;;7.94;100.00
18755;BME280;35061;47.664;9.166;2022-11-11T00:27:34;103038.83;;;7.95;100.00
18755;BME280;35061;47.664;9.166;2022-11-11T00:30:02;103040.04;;;7.94;100.00
18755;BME280;35061;47.664;9.166;2022-11-11T00:32:31;103031.90;;;7.96;100.00
18755;BME280;35061;47.664;9.166;2022-11-11T00:35:00;103031.05;;;8.00;100.00
18755;BME280;35061;47.664;9.166;2022-11-11T00:37:46;103038.77;;;8.03;100.00
18755;BME280;35061;47.664;9.166;2022-11-11T00:40:17;103040.76;;;8.06;100.00
18755;BME280;35061;47.664;9.166;2022-11-11T00:42:45;103037.49;;;8.07;100.00
18755;BME280;35061;47.664;9.166;2022-11-11T00:45:12;103035.85;;;8.10;100.00
18755;BME280;35061;47.664;9.166;2022-11-11T00:47:40;103034.58;;;8.15;100.00
18755;BME280;35061;47.664;9.166;2022-11-11T00:50:27;103047.17;;;8.17;100.00
18755;BME280;35061;47.664;9.166;2022-11-11T00:53:19;103045.14;;;8.18;100.00
18755;BME280;35061;47.664;9.166;2022-11-11T00:55:53;103047.17;;;8.17;100.00
18755;BME280;35061;47.664;9.166;2022-11-11T00:58:22;103046.38;;;8.17;100.00
18755;BME280;35061;47.664;9.166;2022-11-11T01:00:50;103042.27;;;8.21;100.00
18755;BME280;35061;47.664;9.166;2022-11-11T01:03:22;103043.02;;;8.26;100.00
18755;BME280;35061;47.664;9.166;2022-11-11T01:05:50;103046.74;;;8.22;100.00
18755;BME280;35061;47.664;9.166;2022-11-11T01:08:17;103041.38;;;8.28;100.00
18755;BME280;35061;47.664;9.166;2022-11-11T01:10:45;103051.55;;;8.33;100.00
18755;BME280;35061;47.664;9.166;2022-11-11T01:13:18;103047.85;;;8.32;100.00
18755;BME280;35061;47.664;9.166;2022-11-11T01:15:49;103052.34;;;8.33;100.00
18755;BME280;35061;47.664;9.166;2022-11-11T01:18:20;103047.85;;;8.32;100.00
18755;BME280;35061;47.664;9.166;2022-11-11T01:21:03;103050.34;;;8.30;100.00
18755;BME280;35061;47.664;9.166;2022-11-11T01:23:34;103059.73;;;8.31;100.00
18755;BME280;35061;47.664;9.166;2022-11-11T01:26:04;103054.43;;;8.29;100.00
18755;BME280;35061;47.664;9.166;2022-11-11T01:28:32;103064.63;;;8.27;100.00
18755;BME280;35061;47.664;9.166;2022-11-11T01:31:05;103046.25;;;8.28;100.00
18755;BME280;35061;47.664;9.166;2022-11-11T01:33:33;103042.20;;;8.29;100.00
18755;BME280;35061;47.664;9.166;2022-11-11T01:36:16;103038.90;;;8.30;100.00
18755;BME280;35061;47.664;9.166;2022-11-11T01:38:48;103037.26;;;8.33;100.00
18755;BME280;35061;47.664;9.166;2022-11-11T01:41:21;103029.12;;;8.31;100.00
18755;BME280;35061;47.664;9.166;2022-11-11T01:44:12;103026.63;;;8.33;100.00
18755;BME280;35061;47.664;9.166;2022-11-11T01:46:59;103034.38;;;8.36;100.00
18755;BME280;35061;47.664;9.166;2022-11-11T01:49:36;103040.53;;;8.31;100.00
18755;BME280;35061;47.664;9.166;2022-11-11T01:57:34;103049.98;;;8.24;100.00
18755;BME280;35061;47.664;9.166;2022-11-11T02:00:07;103062.24;;;8.21;100.00
18755;BME280;35061;47.664;9.166;2022-11-11T02:02:46;103061.85;;;8.19;100.00
18755;BME280;35061;47.664;9.166;2022-11-11T02:05:17;103067.15;;;8.17;100.00
18755;BME280;35061;47.664;9.166;2022-11-11T02:11:03;103070.02;;;8.17;100.00
18755;BME280;35061;47.664;9.166;2022-11-11T02:13:33;103066.76;;;8.19;100.00
18755;BME280;35061;47.664;9.166;2022-11-11T02:16:23;103060.64;;;8.20;100.00
18755;BME280;35061;47.664;9.166;2022-11-11T02:18:51;103066.76;;;8.19;100.00
18755;BME280;35061;47.664;9.166;2022-11-11T02:21:29;103070.41;;;8.19;100.00
18755;BME280;35061;47.664;9.166;2022-11-11T02:24:04;103059.40;;;8.21;100.00
18755;BME280;35061;47.664;9.166;2022-11-11T02:26:35;103071.20;;;8.23;100.00
18755;BME280;35061;47.664;9.166;2022-11-11T02:29:09;103070.81;;;8.21;100.00
18755;BME280;35061;47.664;9.166;2022-11-11T02:31:38;103066.30;;;8.24;100.00
18755;BME280;35061;47.664;9.166;2022-11-11T02:34:06;103068.36;;;8.20;100.00
18755;BME280;35061;47.664;9.166;2022-11-11T02:36:34;103061.88;;;8.16;100.00
18755;BME280;35061;47.664;9.166;2022-11-11T02:39:02;103069.63;;;8.15;100.00
18755;BME280;35061;47.664;9.166;2022-11-11T02:41:30;103081.44;;;8.17;100.00
18755;BME280;35061;47.664;9.166;2022-11-11T02:44:16;103085.59;;;8.13;100.00
18755;BME280;35061;47.664;9.166;2022-11-11T02:46:44;103094.55;;;8.11;100.00
18755;BME280;35061;47.664;9.166;2022-11-11T02:49:12;103105.57;;;8.13;100.00
18755;BME280;35061;47.664;9.166;2022-11-11T02:51:40;103103.51;;;8.13;100.00
18755;BME280;35061;47.664;9.166;2022-11-11T02:54:07;103111.29;;;8.09;100.00
18755;BME280;35061;47.664;9.166;2022-11-11T02:56:35;103111.72;;;8.07;100.00
18755;BME280;35061;47.664;9.166;2022-11-11T02:59:22;103103.55;;;8.06;100.00
18755;BME280;35061;47.664;9.166;2022-11-11T03:01:50;103102.30;;;8.07;100.00
18755;BME280;35061;47.664;9.166;2022-11-11T03:04:17;103105.60;;;8.05;100.00
18755;BME280;35061;47.664;9.166;2022-11-11T03:06:45;103104.36;;;8.06;100.00
18755;BME280;35061;47.664;9.166;2022-11-11T03:09:13;103110.48;;;8.05;100.00
18755;BME280;35061;47.664;9.166;2022-11-11T03:11:41;103115.38;;;8.08;100.00
18755;BME280;35061;47.664;9.166;2022-11-11T03:14:09;103108.84;;;8.07;100.00
18755;BME280;35061;47.664;9.166;2022-11-11T03:16:36;103122.34;;;8.03;100.00
18755;BME280;35061;47.664;9.166;2022-11-11T03:19:23;103127.61;;;8.05;100.00
18755;BME280;35061;47.664;9.166;2022-11-11T03:21:51;103130.45;;;8.05;100.00
18755;BME280;35061;47.664;9.166;2022-11-11T03:24:38;103136.99;;;8.05;100.00
18755;BME280;35061;47.664;9.166;2022-11-11T03:27:32;103146.77;;;8.08;100.00
18755;BME280;35061;47.664;9.166;2022-11-11T03:30:00;103145.92;;;8.11;100.00
18755;BME280;35061;47.664;9.166;2022-11-11T03:32:28;103152.01;;;8.13;100.00
18755;BME280;35061;47.664;9.166;2022-11-11T03:34:55;103154.85;;;8.17;100.00
18755;BME280;35061;47.664;9.166;2022-11-11T03:37:23;103151.58;;;8.18;100.00
18755;BME280;35061;47.664;9.166;2022-11-11T03:40:10;103153.21;;;8.19;100.00
18755;BME280;35061;47.664;9.166;2022-11-11T03:42:37;103145.83;;;8.22;100.00
18755;BME280;35061;47.664;9.166;2022-11-11T03:45:05;103155.99;;;8.27;100.00
18755;BME280;35061;47.664;9.166;2022-11-11T03:47:33;103155.57;;;8.28;100.00
18755;BME280;35061;47.664;9.166;2022-11-11T03:50:01;103153.58;;;8.25;100.00
18755;BME280;35061;47.664;9.166;2022-11-11T03:52:28;103150.30;;;8.23;100.00
18755;BME280;35061;47.664;9.166;2022-11-11T03:54:56;103159.69;;;8.23;100.00
18755;BME280;35061;47.664;9.166;2022-11-11T03:57:23;103150.73;;;8.21;100.00
18755;BME280;35061;47.664;9.166;2022-11-11T03:59:57;103155.21;;;8.22;100.00
18755;BME280;35061;47.664;9.166;2022-11-11T04:02:25;103161.32;;;8.24;100.00
18755;BME280;35061;47.664;9.166;2022-11-11T04:05:11;103165.77;;;8.26;100.00
18755;BME280;35061;47.664;9.166;2022-11-11T04:07:57;103175.58;;;8.24;100.00
18755;BME280;35061;47.664;9.166;2022-11-11T04:10:43;103182.94;;;8.22;100.00
18755;BME280;35061;47.664;9.166;2022-11-11T04:13:12;103188.63;;;8.26;100.00
18755;BME280;35061;47.664;9.166;2022-11-11T04:15:58;103190.23;;;8.27;100.00
18755;BME280;35061;47.664;9.166;2022-11-11T04:18:35;103192.72;;;8.24;100.00
18755;BME280;35061;47.664;9.166;2022-11-11T04:21:23;103193.53;;;8.25;100.00
18755;BME280;35061;47.664;9.166;2022-11-11T04:24:11;103195.95;;;8.27;100.00
18755;BME280;35061;47.664;9.166;2022-11-11T04:27:00;103189.05;;;8.24;100.00
18755;BME280;35061;47.664;9.166;2022-11-11T04:29:29;103189.84;;;8.28;100.00
18755;BME280;35061;47.664;9.166;2022-11-11T04:34:49;103184.87;;;8.36;100.00
18755;BME280;35061;47.664;9.166;2022-11-11T04:37:18;103177.91;;;8.41;100.00
18755;BME280;35061;47.664;9.166;2022-11-11T04:39:47;103170.52;;;8.47;100.00
18755;BME280;35061;47.664;9.166;2022-11-11T04:42:33;103161.55;;;8.45;100.00
18755;BME280;35061;47.664;9.166;2022-11-11T04:45:02;103159.10;;;8.47;100.00
18755;BME280;35061;47.664;9.166;2022-11-11T04:48:02;103154.20;;;8.47;100.00
18755;BME280;35061;47.664;9.166;2022-11-11T04:50:33;103163.13;;;8.49;100.00
18755;BME280;35061;47.664;9.166;2022-11-11T04:53:03;103164.82;;;8.50;100.00
18755;BME280;35061;47.664;9.166;2022-11-11T04:55:31;103167.60;;;8.54;100.00
18755;BME280;35061;47.664;9.166;2022-11-11T04:58:19;103163.94;;;8.57;100.00
18755;BME280;35061;47.664;9.166;2022-11-11T05:00:47;103159.40;;;8.60;100.00
18755;BME280;35061;47.664;9.166;2022-11-11T05:03:16;103162.21;;;8.63;100.00
18755;BME280;35061;47.664;9.166;2022-11-11T05:05:52;103163.41;;;8.66;100.00
18755;BME280;35061;47.664;9.166;2022-11-11T05:08:44;103169.07;;;8.73;100.00
18755;BME280;35061;47.664;9.166;2022-11-11T05:11:30;103162.89;;;8.78;100.00
18755;BME280;35061;47.664;9.166;2022-11-11T05:13:59;103177.19;;;8.78;100.00
18755;BME280;35061;47.664;9.166;2022-11-11T05:16:53;103185.75;;;8.78;100.00
18755;BME280;35061;47.664;9.166;2022-11-11T05:19:40;103186.54;;;8.83;100.00
18755;BME280;35061;47.664;9.166;2022-11-11T05:22:30;103178.07;;;8.72;100.00
18755;BME280;35061;47.664;9.166;2022-11-11T05:24:59;103164.63;;;8.69;100.00
18755;BME280;35061;47.664;9.166;2022-11-11T05:27:45;103164.27;;;8.63;100.00
18755;BME280;35061;47.664;9.166;2022-11-11T05:30:14;103165.90;;;8.64;100.00
18755;BME280;35061;47.664;9.166;2022-11-11T05:32:42;103166.69;;;8.64;100.00
18755;BME280;35061;47.664;9.166;2022-11-11T05:35:11;103174.08;;;8.62;100.00
18755;BME280;35061;47.664;9.166;2022-11-11T05:37:39;103176.14;;;8.58;100.00
18755;BME280;35061;47.664;9.166;2022-11-11T05:40:08;103184.80;;;8.50;100.00
18755;BME280;35061;47.664;9.166;2022-11-11T05:42:40;103197.39;;;8.49;100.00
18755;BME280;35061;47.664;9.166;2022-11-11T05:45:17;103201.97;;;8.43;100.00
18755;BME280;35061;47.664;9.166;2022-11-11T05:47:44;103213.80;;;8.38;100.00
18755;BME280;35061;47.664;9.166;2022-11-11T05:50:12;103218.38;;;8.28;100.00
18755;BME280;35061;47.664;9.166;2022-11-11T05:52:46;103222.51;;;8.23;100.00
18755;BME280;35061;47.664;9.166;2022-11-11T05:55:14;103219.66;;;8.20;100.00
18755;BME280;35061;47.664;9.166;2022-11-11T05:57:42;103226.63;;;8.15;100.00
18755;BME280;35061;47.664;9.166;2022-11-11T06:00:10;103230.35;;;8.05;100.00
18755;BME280;35061;47.664;9.166;2022-11-11T06:02:37;103225.88;;;8.04;100.00
18755;BME280;35061;47.664;9.166;2022-11-11T06:05:05;103224.30;;;7.95;100.00
18755;BME280;35061;47.664;9.166;2022-11-11T06:07:38;103243.47;;;7.99;100.00
18755;BME280;35061;47.664;9.166;2022-11-11T06:10:09;103239.77;;;7.98;100.00
18755;BME280;35061;47.664;9.166;2022-11-11T06:12:59;103243.01;;;8.00;100.00
18755;BME280;35061;47.664;9.166;2022-11-11T06:15:37;103243.83;;;8.04;100.00
18755;BME280;35061;47.664;9.166;2022-11-11T06:18:06;103243.80;;;8.08;100.00
18755;BME280;35061;47.664;9.166;2022-11-11T06:20:34;103247.03;;;8.14;100.00
18755;BME280;35061;47.664;9.166;2022-11-11T06:23:02;103259.23;;;8.18;100.00
18755;BME280;35061;47.664;9.166;2022-11-11T06:25:32;103264.10;;;8.21;100.00
18755;BME280;35061;47.664;9.166;2022-11-11T06:28:29;103264.92;;;8.21;100.00
18755;BME280;35061;47.664;9.166;2022-11-11T06:30:56;103275.52;;;8.21;100.00
18755;BME280;35061;47.664;9.166;2022-11-11T06:33:24;103280.81;;;8.26;100.00
18755;BME280;35061;47.664;9.166;2022-11-11T06:35:53;103279.93;;;8.36;100.00
18755;BME280;35061;47.664;9.166;2022-11-11T06:38:20;103277.87;;;8.37;100.00
18755;BME280;35061;47.664;9.166;2022-11-11T06:40:48;103290.88;;;8.45;100.00
18755;BME280;35061;47.664;9.166;2022-11-11T06:43:16;103285.95;;;8.49;100.00
18755;BME280;35061;47.664;9.166;2022-11-11T06:45:44;103278.98;;;8.58;100.00
18755;BME280;35061;47.664;9.166;2022-11-11T06:48:12;103287.52;;;8.65;100.00
18755;BME280;35061;47.664;9.166;2022-11-11T06:50:39;103295.59;;;8.74;100.00
18755;BME280;35061;47.664;9.166;2022-11-11T06:53:09;103301.67;;;8.79;100.00
18755;BME280;35061;47.664;9.166;2022-11-11T06:55:37;103304.87;;;8.85;100.00
18755;BME280;35061;47.664;9.166;2022-11-11T06:58:05;103310.96;;;8.91;99.87
18755;BME280;35061;47.664;9.166;2022-11-11T07:00:34;103309.72;;;8.92;99.50
18755;BME280;35061;47.664;9.166;2022-11-11T07:03:03;103319.13;;;8.89;98.73
18755;BME280;35061;47.664;9.166;2022-11-11T07:05:32;103327.80;;;8.82;97.82
18755;BME280;35061;47.664;9.166;2022-11-11T07:08:01;103329.80;;;8.85;98.74
18755;BME280;35061;47.664;9.166;2022-11-11T07:10:30;103330.68;;;8.74;98.56
18755;BME280;35061;47.664;9.166;2022-11-11T07:12:58;103341.27;;;8.77;98.66
18755;BME280;35061;47.664;9.166;2022-11-11T07:15:26;103339.24;;;8.78;98.76
18755;BME280;35061;47.664;9.166;2022-11-11T07:17:54;103344.51;;;8.79;98.66
18755;BME280;35061;47.664;9.166;2022-11-11T07:20:22;103344.51;;;8.83;98.58
18755;BME280;35061;47.664;9.166;2022-11-11T07:22:50;103348.60;;;8.82;98.29
18755;BME280;35061;47.664;9.166;2022-11-11T07:25:17;103348.17;;;8.84;98.38
18755;BME280;35061;47.664;9.166;2022-11-11T07:27:45;103355.07;;;8.86;98.30
18755;BME280;35061;47.664;9.166;2022-11-11T07:30:13;103352.66;;;8.88;98.30
18755;BME280;35061;47.664;9.166;2022-11-11T07:32:48;103349.35;;;8.90;98.30
18755;BME280;35061;47.664;9.166;2022-11-11T07:35:16;103353.44;;;8.89;98.15
18755;BME280;35061;47.664;9.166;2022-11-11T07:37:44;103353.41;;;8.92;97.77
18755;BME280;35061;47.664;9.166;2022-11-11T07:40:14;103353.80;;;8.94;98.09
18755;BME280;35061;47.664;9.166;2022-11-11T07:42:43;103354.16;;;9.00;98.02
18755;BME280;35061;47.664;9.166;2022-11-11T07:45:11;103348.04;;;8.98;97.57
18755;BME280;35061;47.664;9.166;2022-11-11T07:47:42;103345.20;;;8.98;97.67
18755;BME280;35061;47.664;9.166;2022-11-11T07:50:10;103343.10;;;9.02;97.73
18755;BME280;35061;47.664;9.166;2022-11-11T07:52:38;103351.67;;;9.06;97.62
18755;BME280;35061;47.664;9.166;2022-11-11T07:55:06;103354.52;;;9.06;97.54
18755;BME280;35061;47.664;9.166;2022-11-11T07:57:35;103352.09;;;9.04;97.46
18755;BME280;35061;47.664;9.166;2022-11-11T08:00:03;103356.97;;;9.07;97.46
18755;BME280;35061;47.664;9.166;2022-11-11T08:02:31;103350.43;;;9.07;97.20
18755;BME280;35061;47.664;9.166;2022-11-11T08:04:59;103349.19;;;9.08;97.15
18755;BME280;35061;47.664;9.166;2022-11-11T08:07:27;103346.77;;;9.06;97.03
18755;BME280;35061;47.664;9.166;2022-11-11T08:09:54;103350.85;;;9.09;97.06
18755;BME280;35061;47.664;9.166;2022-11-11T08:12:22;103353.70;;;9.09;97.18
18755;BME280;35061;47.664;9.166;2022-11-11T08:15:08;103356.51;;;9.13;96.98
18755;BME280;35061;47.664;9.166;2022-11-11T08:17:37;103341.80;;;9.14;96.94
18755;BME280;35061;47.664;9.166;2022-11-11T08:20:07;103351.57;;;9.17;96.89
18755;BME280;35061;47.664;9.166;2022-11-11T08:22:40;103358.15;;;9.14;96.54
18755;BME280;35061;47.664;9.166;2022-11-11T08:25:28;103350.79;;;9.13;96.65
18755;BME280;35061;47.664;9.166;2022-11-11T08:27:58;103342.22;;;9.13;96.61
18755;BME280;35061;47.664;9.166;2022-11-11T08:30:26;103349.97;;;9.16;96.81
18755;BME280;35061;47.664;9.166;2022-11-11T08:33:02;103347.48;;;9.18;96.80
18755;BME280;35061;47.664;9.166;2022-11-11T08:35:50;103358.54;;;9.16;96.59
18755;BME280;35061;47.664;9.166;2022-11-11T08:38:21;103355.23;;;9.17;96.74
18755;BME280;35061;47.664;9.166;2022-11-11T08:40:51;103356.45;;;9.20;96.80
18755;BME280;35061;47.664;9.166;2022-11-11T08:43:19;103344.97;;;9.24;96.79
18755;BME280;35061;47.664;9.166;2022-11-11T08:45:51;103354.78;;;9.26;96.24
18755;BME280;35061;47.664;9.166;2022-11-11T08:48:19;103358.87;;;9.25;96.30
18755;BME280;35061;47.664;9.166;2022-11-11T08:50:51;103363.73;;;9.28;96.29
18755;BME280;35061;47.664;9.166;2022-11-11T08:53:19;103360.86;;;9.32;96.54
18755;BME280;35061;47.664;9.166;2022-11-11T08:55:47;103361.65;;;9.32;96.22
18755;BME280;35061;47.664;9.166;2022-11-11T08:58:14;103357.95;;;9.35;96.35
18755;BME280;35061;47.664;9.166;2022-11-11T09:00:45;103364.82;;;9.42;96.27
18755;BME280;35061;47.664;9.166;2022-11-11T09:03:13;103372.63;;;9.38;96.15
18755;BME280;35061;47.664;9.166;2022-11-11T09:05:41;103366.91;;;9.38;96.05
18755;BME280;35061;47.664;9.166;2022-11-11T09:08:09;103371.03;;;9.37;96.12
18755;BME280;35061;47.664;9.166;2022-11-11T09:10:37;103379.14;;;9.42;96.29
18755;BME280;35061;47.664;9.166;2022-11-11T09:13:05;103375.41;;;9.45;95.84
18755;BME280;35061;47.664;9.166;2022-11-11T09:15:33;103374.20;;;9.46;95.89
18755;BME280;35061;47.664;9.166;2022-11-11T09:18:01;103375.02;;;9.43;95.79
18755;BME280;35061;47.664;9.166;2022-11-11T09:20:29;103376.63;;;9.47;96.05
18755;BME280;35061;47.664;9.166;2022-11-11T09:22:57;103379.83;;;9.53;95.97
18755;BME280;35061;47.664;9.166;2022-11-11T09:25:25;103382.25;;;9.58;95.74
18755;BME280;35061;47.664;9.166;2022-11-11T09:27:58;103373.65;;;9.62;95.62
18755;BME280;35061;47.664;9.166;2022-11-11T09:30:27;103374.82;;;9.64;95.59
18755;BME280;35061;47.664;9.166;2022-11-11T09:33:03;103368.25;;;9.68;95.40
18755;BME280;35061;47.664;9.166;2022-11-11T09:35:30;103367.83;;;9.69;95.29
18755;BME280;35061;47.664;9.166;2022-11-11T09:37:59;103373.48;;;9.76;95.26
18755;BME280;35061;47.664;9.166;2022-11-11T09:46:38;103363.21;;;9.79;93.97
18755;BME280;35061;47.664;9.166;2022-11-11T09:49:37;103362.82;;;9.77;94.91
18755;BME280;35061;47.664;9.166;2022-11-11T09:52:21;103371.39;;;9.77;95.12
18755;BME280;35061;47.664;9.166;2022-11-11T09:54:57;103355.30;;;9.94;98.19
18755;BME280;35061;47.664;9.166;2022-11-11T09:57:34;103361.41;;;9.93;94.92
18755;BME280;35061;47.664;9.166;2022-11-11T10:00:15;103357.33;;;9.94;95.86
18755;BME280;35061;47.664;9.166;2022-11-11T10:02:51;103357.72;;;9.96;94.82
18755;BME280;35061;47.664;9.166;2022-11-11T10:08:20;103354.84;;;9.96;93.20
18755;BME280;35061;47.664;9.166;2022-11-11T10:10:52;103361.74;;;10.02;95.34
18755;BME280;35061;47.664;9.166;2022-11-11T10:16:01;103348.66;;;10.01;94.97
18755;BME280;35061;47.664;9.166;2022-11-11T10:18:39;103338.40;;;10.03;93.42
18755;BME280;35061;47.664;9.166;2022-11-11T10:21:15;103342.35;;;10.13;95.70
18755;BME280;35061;47.664;9.166;2022-11-11T10:23:54;103341.05;;;10.22;94.76
18755;BME280;35061;47.664;9.166;2022-11-11T10:26:37;103335.59;;;10.31;94.95
18755;BME280;35061;47.664;9.166;2022-11-11T10:29:21;103338.46;;;10.31;95.89
18755;BME280;35061;47.664;9.166;2022-11-11T10:32:08;103331.85;;;10.34;94.59
18755;BME280;35061;47.664;9.166;2022-11-11T10:34:37;103326.07;;;10.38;93.82
18755;BME280;35061;47.664;9.166;2022-11-11T10:37:20;103320.70;;;10.43;94.56
18755;BME280;35061;47.664;9.166;2022-11-11T10:39:52;103310.01;;;10.47;93.52
18755;BME280;35061;47.664;9.166;2022-11-11T10:42:25;103314.82;;;10.54;94.15
18755;BME280;35061;47.664;9.166;2022-11-11T10:44:58;103310.70;;;10.55;93.46
18755;BME280;35061;47.664;9.166;2022-11-11T10:50:15;103305.70;;;10.63;92.81
18755;BME280;35061;47.664;9.166;2022-11-11T10:52:50;103301.51;;;10.68;94.28
18755;BME280;35061;47.664;9.166;2022-11-11T10:55:32;103301.74;;;10.77;94.83
18755;BME280;35061;47.664;9.166;2022-11-11T10:58:11;103300.70;;;10.91;97.22
18755;BME280;35061;47.664;9.166;2022-11-11T11:00:44;103295.30;;;10.97;93.35
18755;BME280;35061;47.664;9.166;2022-11-11T11:03:31;103298.47;;;11.02;93.65
18755;BME280;35061;47.664;9.166;2022-11-11T11:09:42;103294.35;;;11.03;91.81
18755;BME280;35061;47.664;9.166;2022-11-11T11:12:08;103285.88;;;10.96;90.60
18755;BME280;35061;47.664;9.166;2022-11-11T11:14:46;103281.27;;;11.02;92.49
18755;BME280;35061;47.664;9.166;2022-11-11T11:17:21;103282.09;;;11.03;90.80
18755;BME280;35061;47.664;9.166;2022-11-11T11:20:10;103282.02;;;11.07;92.27
18755;BME280;35061;47.664;9.166;2022-11-11T11:23:04;103279.11;;;11.10;93.32
18755;BME280;35061;47.664;9.166;2022-11-11T11:25:32;103276.59;;;11.12;92.38
18755;BME280;35061;47.664;9.166;2022-11-11T11:28:09;103282.12;;;11.23;93.21
18755;BME280;35061;47.664;9.166;2022-11-11T11:30:38;103277.87;;;11.31;91.95
18755;BME280;35061;47.664;9.166;2022-11-11T11:33:07;103271.72;;;11.33;91.12
18755;BME280;35061;47.664;9.166;2022-11-11T11:38:06;103272.77;;;11.19;87.60
18755;BME280;35061;47.664;9.166;2022-11-11T11:40:48;103277.37;;;11.13;88.90
18755;BME280;35061;47.664;9.166;2022-11-11T11:43:37;103278.59;;;11.15;89.72
18755;BME280;35061;47.664;9.166;2022-11-11T11:46:18;103281.86;;;11.14;88.83
18755;BME280;35061;47.664;9.166;2022-11-11T11:49:17;103270.41;;;11.14;90.34
18755;BME280;35061;47.664;9.166;2022-11-11T11:52:01;103271.66;;;11.13;87.58
18755;BME280;35061;47.664;9.166;2022-11-11T11:54:45;103273.98;;;11.22;89.86
18755;BME280;35061;47.664;9.166;2022-11-11T11:57:21;103279.77;;;11.18;88.71
18755;BME280;35061;47.664;9.166;2022-11-11T12:00:05;103267.11;;;11.15;87.97
18755;BME280;35061;47.664;9.166;2022-11-11T12:02:39;103271.66;;;11.13;87.53
18755;BME280;35061;47.664;9.166;2022-11-11T12:05:38;103271.23;;;11.14;88.07
18755;BME280;35061;47.664;9.166;2022-11-11T12:16:25;103264.79;;;11.51;88.97
18755;BME280;35061;47.664;9.166;2022-11-11T12:24:37;103258.97;;;11.54;85.24
18755;BME280;35061;47.664;9.166;2022-11-11T12:27:17;103259.33;;;11.56;87.56
18755;BME280;35061;47.664;9.166;2022-11-11T12:41:29;103260.57;;;11.96;92.86
18755;BME280;35061;47.664;9.166;2022-11-11T12:44:10;103260.14;;;11.97;85.53
18755;BME280;35061;47.664;9.166;2022-11-11T12:55:21;103263.45;;;11.96;87.58
18755;BME280;35061;47.664;9.166;2022-11-11T12:58:09;103260.05;;;12.01;86.85
18755;BME280;35061;47.664;9.166;2022-11-11T13:09:26;103263.16;;;11.90;87.07
18755;BME280;35061;47.664;9.166;2022-11-11T13:12:06;103260.14;;;11.77;85.94
18755;BME280;35061;47.664;9.166;2022-11-11T13:17:31;103257.95;;;11.65;85.70
18755;BME280;35061;47.664;9.166;2022-11-11T13:20:34;103255.14;;;11.61;85.60
18755;BME280;35061;47.664;9.166;2022-11-11T13:22:54;103254.78;;;11.59;87.80
18755;BME280;35061;47.664;9.166;2022-11-11T13:25:24;103260.44;;;11.63;86.99
18755;BME280;35061;47.664;9.166;2022-11-11T13:28:01;103253.84;;;11.66;87.56
18755;BME280;35061;47.664;9.166;2022-11-11T13:33:20;103260.90;;;11.61;86.08
18755;BME280;35061;47.664;9.166;2022-11-11T13:35:56;103261.84;;;11.54;85.31
18755;BME280;35061;47.664;9.166;2022-11-11T13:38:34;103250.53;;;11.47;85.78
18755;BME280;35061;47.664;9.166;2022-11-11T13:41:05;103255.08;;;11.44;85.67
18755;BME280;35061;47.664;9.166;2022-11-11T13:43:40;103248.60;;;11.40;85.31
18755;BME280;35061;47.664;9.166;2022-11-11T13:48:58;103249.62;;;11.30;85.46
18755;BME280;35061;47.664;9.166;2022-11-11T13:51:35;103234.02;;;11.31;86.42
18755;BME280;35061;47.664;9.166;2022-11-11T13:56:51;103230.81;;;11.49;91.51
18755;BME280;35061;47.664;9.166;2022-11-11T13:59:28;103235.52;;;11.59;91.68
18755;BME280;35061;47.664;9.166;2022-11-11T14:02:34;103232.58;;;11.63;89.36
18755;BME280;35061;47.664;9.166;2022-11-11T14:12:52;103247.49;;;11.54;85.66
18755;BME280;35061;47.664;9.166;2022-11-11T14:15:42;103253.48;;;11.43;85.47
18755;BME280;35061;47.664;9.166;2022-11-11T14:20:40;103263.64;;;11.24;85.35
18755;BME280;35061;47.664;9.166;2022-11-11T14:25:45;103253.41;;;11.03;86.23
18755;BME280;35061;47.664;9.166;2022-11-11T14:28:28;103260.87;;;10.97;85.42
18755;BME280;35061;47.664;9.166;2022-11-11T14:42:00;103268.22;;;10.74;86.41
18755;BME280;35061;47.664;9.166;2022-11-11T14:49:49;103274.47;;;10.69;86.07
18755;BME280;35061;47.664;9.166;2022-11-11T14:57:48;103268.16;;;10.54;86.05
18755;BME280;35061;47.664;9.166;2022-11-11T15:00:22;103269.79;;;10.55;86.08
18755;BME280;35061;47.664;9.166;2022-11-11T15:03:04;103264.92;;;10.52;85.64
18755;BME280;35061;47.664;9.166;2022-11-11T15:08:20;103260.57;;;10.40;85.85
18755;BME280;35061;47.664;9.166;2022-11-11T15:13:50;103262.23;;;10.37;86.20
18755;BME280;35061;47.664;9.166;2022-11-11T15:16:48;103253.63;;;10.37;86.17
18755;BME280;35061;47.664;9.166;2022-11-11T15:25:48;103247.55;;;10.35;86.43
18755;BME280;35061;47.664;9.166;2022-11-11T15:38:55;103247.23;;;10.29;86.67
18755;BME280;35061;47.664;9.166;2022-11-11T15:41:35;103253.73;;;10.30;86.68
18755;BME280;35061;47.664;9.166;2022-11-11T15:44:25;103253.73;;;10.30;86.57
18755;BME280;35061;47.664;9.166;2022-11-11T15:46:55;103245.16;;;10.30;86.64
18755;BME280;35061;47.664;9.166;2022-11-11T15:49:39;103238.30;;;10.24;86.80
18755;BME280;35061;47.664;9.166;2022-11-11T15:52:29;103241.60;;;10.22;86.61